Onego, WV (26886)

4:26 PM EST on November 22, 2014 (GMT -0500)
Alpena | Change Station
CLOSE
Current Station
Personal Weather Station
Location: Bowden, WV
Elevation: 2848 ft
Nearby Weather Stations

Elev 2848 ft 38.92 °N, 79.64 °W | Updated 2 seconds ago

Mostly Cloudy
Mostly Cloudy
48.6 °F
Feels Like 49 °F
N
0.9
Wind Variable Wind from SW
Gusts 1.8 mph

Today
High -- | Low -- °F
--% Chance of Precip.
Yesterday
High -- | Low -- °F
Precip. -- in
7:08 AM 4:59 PM
New Moon, 0% visible
Pressure 30.28 in
Visibility 10.0 miles
Clouds Overcast 9500 ft
Windchill 49 °F
Dew Point 33 °F
Humidity 55%
Rainfall 0.00 in
Snow Depth Not available.
UV 0 out of 12
Pollen .10 out of 12
Air Quality Not available.
Flu Activity Not available.
METAR KEKN 222051Z AUTO 22007KT 10SM OVC095 14/00 A3021 RMK AO2 SLP252 T01390000 56022 TSNO

More Conditions Fewer Conditions

Pressure 30.28 in
Visibility 10.0 miles
Clouds Overcast 9500 ft
Windchill 49 °F
Dew Point 33 °F
Humidity 55%
Rainfall 0.00 in
Snow Depth Not available.
UV 0 out of 12
Pollen .10 out of 12
Air Quality Not available.
Flu Activity Not available.
METAR KEKN 222051Z AUTO 22007KT 10SM OVC095 14/00 A3021 RMK AO2 SLP252 T01390000 56022 TSNO

More Conditions Fewer Conditions

10-Day Weather Forecast

Almanac

Astronomy

Nov. 22, 2014 Rise Set
Actual Time
Civil Twilight
Nautical Twilight
Astronomical Twilight
Moon
Length of Visible Light
Length of Day
Tomorrow will be .
, % of the Moon is Illuminated

Today's Extremes

State Highs State Lows

Community

WunderPhotos

Upload Photos

1,772,911 photos uploaded!

WunderBlogs® & News

Nearby

Air Quality

  Air Quality AQ Index Pollutant
Not available.

Snow Depth

Station Depth Elevation

Earthquake Activity

City Distance Mag. Time & Date
Minimum magnitude displayed is 2.5.

Coastal Water Temperatures

Place Temperature

Nearby Weather Stations